Time;durP1;ratioP1;P1;durP2;ratioP2;P2;SDS_P1;SDS_P2;PMS_P1;PMS_P2;Temp;Humidity;BMP_temperature;BMP_pressure;BME280_temperature;BME280_humidity;BME280_pressure;Samples;Min_cycle;Max_cycle;Signal;HPM_P1;HPM_P2
2023/10/25 00:00:56;;;;;;;4.93;4.40;;;20.10;59.70;;;;;;5093256;28;20059;-39
2023/10/25 00:03:22;;;;;;;5.30;4.80;;;20.00;59.70;;;;;;5085243;28;20115;-39
2023/10/25 00:05:48;;;;;;;6.00;5.40;;;20.00;59.70;;;;;;5091045;28;20451;-39
2023/10/25 00:08:14;;;;;;;6.68;5.78;;;20.00;59.70;;;;;;5097135;28;20087;-39
2023/10/25 00:10:41;;;;;;;5.97;5.38;;;20.00;59.60;;;;;;5094538;28;20034;-39
2023/10/25 00:13:07;;;;;;;6.00;5.40;;;20.00;59.60;;;;;;5092683;28;20101;-38
2023/10/25 00:15:33;;;;;;;6.50;5.63;;;20.00;59.70;;;;;;5091682;28;20035;-39
2023/10/25 00:17:59;;;;;;;7.00;6.00;;;20.00;59.70;;;;;;5093967;28;20029;-39
2023/10/25 00:20:26;;;;;;;6.90;6.20;;;19.90;59.70;;;;;;5102021;28;20050;-38
2023/10/25 00:22:52;;;;;;;6.80;6.20;;;19.90;59.70;;;;;;5094594;28;20036;-39
2023/10/25 00:25:18;;;;;;;6.95;5.97;;;19.90;59.70;;;;;;5100218;28;20039;-38
2023/10/25 00:27:44;;;;;;;8.05;7.25;;;19.90;59.70;;;;;;5100741;28;20485;-40
2023/10/25 00:30:11;;;;;;;7.32;6.63;;;19.90;59.70;;;;;;5098614;28;20035;-38
2023/10/25 00:32:37;;;;;;;8.02;7.22;;;19.90;59.80;;;;;;5101745;28;20051;-39
2023/10/25 00:35:04;;;;;;;7.68;6.97;;;19.90;59.80;;;;;;5095140;28;20039;-38
2023/10/25 00:37:30;;;;;;;8.55;7.65;;;19.90;59.90;;;;;;5101195;28;20036;-39
2023/10/25 00:39:56;;;;;;;9.45;7.30;;;19.90;59.80;;;;;;5094213;28;20071;-38
2023/10/25 00:42:23;;;;;;;8.55;7.75;;;19.80;59.80;;;;;;5101776;28;20460;-39
2023/10/25 00:44:49;;;;;;;8.70;7.80;;;19.80;59.80;;;;;;5093602;28;20040;-39
2023/10/25 00:47:16;;;;;;;9.25;8.30;;;19.80;59.70;;;;;;5090859;28;20059;-39
2023/10/25 00:49:42;;;;;;;9.52;8.63;;;19.80;59.80;;;;;;5084655;28;20032;-39
2023/10/25 00:52:08;;;;;;;9.20;8.40;;;19.80;59.80;;;;;;5065772;28;20040;-39
2023/10/25 00:54:35;;;;;;;10.10;9.20;;;19.70;59.80;;;;;;5073531;28;20019;-39
2023/10/25 00:57:02;;;;;;;9.93;9.02;;;19.70;59.80;;;;;;5049837;28;20029;-38
2023/10/25 00:59:28;;;;;;;10.37;9.37;;;19.70;59.90;;;;;;5053028;28;20029;-38
2023/10/25 01:01:55;;;;;;;10.75;9.65;;;19.70;59.90;;;;;;5094154;28;20353;-39
2023/10/25 01:04:21;;;;;;;10.97;9.80;;;19.70;59.90;;;;;;5067859;28;20036;-38
2023/10/25 01:06:47;;;;;;;10.90;9.80;;;19.70;59.90;;;;;;5101180;28;20039;-41
2023/10/25 01:09:13;;;;;;;10.55;9.45;;;19.70;59.90;;;;;;5089988;28;20033;-39
2023/10/25 01:11:39;;;;;;;11.93;10.82;;;19.60;59.90;;;;;;5091578;28;20036;-38
2023/10/25 01:14:05;;;;;;;11.52;10.43;;;19.60;60.00;;;;;;5087416;28;20028;-39
2023/10/25 01:16:31;;;;;;;11.35;10.35;;;19.60;60.00;;;;;;5087556;28;20033;-38
2023/10/25 01:18:57;;;;;;;12.07;10.88;;;19.60;60.10;;;;;;5082954;28;20035;-38
2023/10/25 01:21:24;;;;;;;12.23;11.02;;;19.60;60.10;;;;;;5089539;28;20095;-39
2023/10/25 01:23:52;;;;;;;12.35;11.07;;;19.50;60.80;;;;;;5076468;28;20024;-38
2023/10/25 01:26:19;;;;;;;12.52;11.32;;;19.50;60.10;;;;;;5083285;28;20316;-38
2023/10/25 01:28:45;;;;;;;12.60;11.40;;;19.50;60.20;;;;;;5090954;28;20071;-38
2023/10/25 01:31:11;;;;;;;13.35;11.95;;;19.50;60.10;;;;;;5084331;28;20063;-39
2023/10/25 01:33:37;;;;;;;13.73;12.43;;;19.50;60.20;;;;;;5096148;28;20047;-38
2023/10/25 01:36:03;;;;;;;12.77;11.50;;;19.50;60.30;;;;;;5093992;28;20039;-39
2023/10/25 01:38:29;;;;;;;14.63;13.23;;;19.50;60.30;;;;;;5095079;28;20036;-38
2023/10/25 01:40:55;;;;;;;14.13;12.73;;;19.40;60.30;;;;;;5099209;28;20043;-38
2023/10/25 01:43:22;;;;;;;13.25;11.85;;;19.40;60.30;;;;;;5082948;28;20104;-38
2023/10/25 01:45:49;;;;;;;14.40;13.00;;;19.40;60.30;;;;;;5083591;28;20036;-39
2023/10/25 01:48:16;;;;;;;14.38;12.98;;;19.40;60.40;;;;;;5082592;28;20503;-39
2023/10/25 01:50:43;;;;;;;14.98;13.48;;;19.40;60.50;;;;;;5083594;28;20028;-39
2023/10/25 01:53:09;;;;;;;15.30;13.80;;;19.40;60.50;;;;;;5083491;28;20051;-39
2023/10/25 01:55:40;;;;;;;15.30;13.90;;;19.40;60.50;;;;;;5084320;28;20028;-39
2023/10/25 01:58:06;;;;;;;17.40;13.93;;;19.30;60.60;;;;;;5105643;28;20035;-39
2023/10/25 02:00:32;;;;;;;15.60;14.10;;;19.30;60.60;;;;;;5090463;28;20040;-39
2023/10/25 02:02:58;;;;;;;15.85;14.25;;;19.30;60.60;;;;;;5082534;28;20029;-39
2023/10/25 02:05:24;;;;;;;17.08;15.38;;;19.30;60.70;;;;;;5091398;28;20043;-39
2023/10/25 02:07:51;;;;;;;16.00;14.40;;;19.30;60.80;;;;;;5093008;28;20094;-39
2023/10/25 02:10:18;;;;;;;16.63;14.95;;;19.20;60.80;;;;;;5083933;28;20075;-38
2023/10/25 02:12:44;;;;;;;16.00;14.40;;;19.20;60.90;;;;;;5089970;28;20110;-38
2023/10/25 02:15:10;;;;;;;17.45;15.75;;;19.20;60.80;;;;;;5090321;28;20052;-38
2023/10/25 02:17:37;;;;;;;16.30;14.80;;;19.20;60.90;;;;;;5089568;28;20025;-38
2023/10/25 02:20:03;;;;;;;17.55;15.90;;;19.20;61.00;;;;;;5091374;28;20033;-38
2023/10/25 02:22:29;;;;;;;17.80;16.10;;;19.10;60.90;;;;;;5089472;28;20043;-38
2023/10/25 02:24:56;;;;;;;17.90;16.10;;;19.10;61.10;;;;;;5095381;28;20507;-40
2023/10/25 02:27:22;;;;;;;17.48;15.68;;;19.10;61.10;;;;;;5095569;28;20055;-39
2023/10/25 02:29:49;;;;;;;17.35;15.65;;;19.10;61.10;;;;;;5092998;28;20032;-39
2023/10/25 02:32:15;;;;;;;17.52;15.82;;;19.10;61.10;;;;;;5086835;28;20044;-39
2023/10/25 02:34:42;;;;;;;17.70;16.00;;;19.10;61.10;;;;;;5094004;28;20032;-39
2023/10/25 02:37:08;;;;;;;17.52;15.65;;;19.10;61.30;;;;;;5104286;28;20032;-39
2023/10/25 02:39:34;;;;;;;18.38;16.52;;;19.00;61.20;;;;;;5096754;28;20118;-38
2023/10/25 02:42:00;;;;;;;17.52;15.82;;;19.00;61.30;;;;;;5090313;28;20950;-39
2023/10/25 02:44:26;;;;;;;17.90;16.10;;;19.00;61.40;;;;;;5097783;28;20082;-40
2023/10/25 02:46:54;;;;;;;18.13;16.30;;;19.00;61.40;;;;;;5102063;28;20028;-39
2023/10/25 02:49:21;;;;;;;18.20;16.50;;;19.00;61.50;;;;;;5082305;28;20606;-40
2023/10/25 02:51:47;;;;;;;18.13;16.33;;;19.00;61.50;;;;;;5094672;28;20089;-40
2023/10/25 02:54:13;;;;;;;18.90;17.10;;;19.00;61.50;;;;;;5088546;28;20039;-39
2023/10/25 02:56:39;;;;;;;17.95;16.15;;;18.90;61.40;;;;;;5068069;28;20039;-39
2023/10/25 02:59:05;;;;;;;17.77;16.02;;;18.90;61.60;;;;;;5092332;28;20034;-38
2023/10/25 03:01:32;;;;;;;18.08;16.27;;;18.90;61.60;;;;;;5097067;28;20031;-39
2023/10/25 03:03:58;;;;;;;19.98;18.02;;;18.90;61.60;;;;;;5094859;28;20146;-39
2023/10/25 03:06:24;;;;;;;18.80;16.90;;;18.90;61.70;;;;;;5100779;28;20043;-39
2023/10/25 03:08:50;;;;;;;17.98;16.17;;;18.80;61.70;;;;;;5102705;28;20054;-39
2023/10/25 03:11:16;;;;;;;19.50;17.50;;;18.80;61.70;;;;;;5096764;28;20032;-38
2023/10/25 03:13:42;;;;;;;18.35;16.55;;;18.80;61.80;;;;;;5103114;28;20393;-39
2023/10/25 03:16:09;;;;;;;18.67;16.95;;;18.80;61.80;;;;;;5102799;28;20032;-39
2023/10/25 03:18:35;;;;;;;19.07;17.17;;;18.80;61.90;;;;;;5096464;28;20036;-38
2023/10/25 03:21:02;;;;;;;20.77;18.70;;;18.80;61.90;;;;;;5089062;28;20037;-38
2023/10/25 03:23:32;;;;;;;;;;;18.80;61.90;;;;;;5096598;28;20067;-39
2023/10/25 03:26:05;;;;;;;18.90;17.00;;;18.70;61.90;;;;;;5102017;28;19916;-39
2023/10/25 03:28:32;;;;;;;19.10;17.20;;;18.70;61.90;;;;;;5096857;28;20032;-39
2023/10/25 03:31:03;;;;;;;19.98;18.00;;;18.70;61.90;;;;;;5095097;28;20472;-39
2023/10/25 03:33:29;;;;;;;19.60;17.60;;;18.70;62.00;;;;;;5090503;28;20067;-40
2023/10/25 03:35:55;;;;;;;19.02;17.13;;;18.70;62.10;;;;;;5097369;28;20040;-39
2023/10/25 03:38:21;;;;;;;18.92;17.02;;;18.70;62.10;;;;;;5103667;28;20023;-40
2023/10/25 03:40:48;;;;;;;18.42;16.63;;;18.70;62.10;;;;;;5093721;28;20051;-40
2023/10/25 03:43:14;;;;;;;13.63;12.27;;;18.60;62.10;;;;;;5102631;28;20860;-39
2023/10/25 03:45:40;;;;;;;19.33;17.42;;;18.60;62.80;;;;;;5102434;28;20039;-39
2023/10/25 03:48:06;;;;;;;18.23;16.42;;;18.60;62.20;;;;;;5102084;28;20373;-39
2023/10/25 03:50:32;;;;;;;18.90;16.90;;;18.60;62.20;;;;;;5097152;28;20032;-39
2023/10/25 03:52:58;;;;;;;17.92;16.13;;;18.60;62.20;;;;;;5094766;28;20122;-39
2023/10/25 03:55:24;;;;;;;18.90;17.10;;;18.60;62.30;;;;;;5097457;28;20040;-39
2023/10/25 03:57:51;;;;;;;19.48;17.48;;;18.60;62.40;;;;;;5100430;28;20035;-39
2023/10/25 04:00:17;;;;;;;19.33;17.48;;;18.60;62.40;;;;;;5094965;28;20066;-40
2023/10/25 04:02:43;;;;;;;18.08;16.38;;;18.50;62.30;;;;;;5094435;28;20064;-40
2023/10/25 04:05:09;;;;;;;18.95;17.10;;;18.50;62.30;;;;;;5096858;28;20128;-39
2023/10/25 04:07:35;;;;;;;18.83;16.92;;;18.50;62.40;;;;;;5103440;28;20035;-40
2023/10/25 04:10:02;;;;;;;19.30;17.40;;;18.50;62.50;;;;;;5101873;28;20033;-40
2023/10/25 04:12:28;;;;;;;19.25;17.27;;;18.50;62.40;;;;;;5100820;28;20028;-39
2023/10/25 04:14:55;;;;;;;18.80;16.58;;;18.50;62.60;;;;;;5099932;28;20040;-39
2023/10/25 04:17:21;;;;;;;19.80;17.80;;;18.50;62.50;;;;;;5097328;28;20033;-39
2023/10/25 04:19:48;;;;;;;18.42;16.70;;;18.50;62.60;;;;;;5091396;28;20071;-39
2023/10/25 04:22:14;;;;;;;19.60;17.45;;;18.40;62.70;;;;;;5089300;28;20032;-39
2023/10/25 04:24:41;;;;;;;17.80;16.08;;;18.40;62.60;;;;;;5101102;28;20093;-39
2023/10/25 04:27:07;;;;;;;19.08;17.25;;;18.40;62.60;;;;;;5101324;28;20020;-43
2023/10/25 04:29:33;;;;;;;18.92;17.13;;;18.40;62.60;;;;;;5102377;28;20039;-39
2023/10/25 04:31:59;;;;;;;18.38;16.50;;;18.40;62.70;;;;;;5093246;28;20029;-39
2023/10/25 04:34:25;;;;;;;18.40;16.60;;;18.30;62.70;;;;;;5093755;28;20055;-39
2023/10/25 04:36:52;;;;;;;19.50;17.60;;;18.30;62.70;;;;;;5101535;28;20170;-40
2023/10/25 04:39:18;;;;;;;18.70;16.80;;;18.30;62.70;;;;;;5095128;28;20040;-40
2023/10/25 04:41:44;;;;;;;19.40;17.40;;;18.30;62.70;;;;;;5088318;28;20048;-40
2023/10/25 04:44:10;;;;;;;19.35;17.30;;;18.30;62.80;;;;;;5079205;28;20042;-40
2023/10/25 04:46:36;;;;;;;19.75;17.65;;;18.30;62.80;;;;;;5056587;28;20433;-39
2023/10/25 04:49:03;;;;;;;18.52;16.73;;;18.30;62.90;;;;;;5074253;28;20043;-39
2023/10/25 04:51:29;;;;;;;19.45;17.45;;;18.30;62.90;;;;;;5074627;28;20031;-39
2023/10/25 04:53:55;;;;;;;17.88;15.98;;;18.20;62.90;;;;;;5079026;28;20039;-39
2023/10/25 04:56:24;;;;;;;18.65;16.85;;;18.20;62.90;;;;;;5081507;28;20029;-39
2023/10/25 04:58:50;;;;;;;19.17;17.35;;;18.20;63.00;;;;;;5080834;28;20060;-40
2023/10/25 05:01:17;;;;;;;19.20;16.65;;;18.20;63.00;;;;;;5074658;28;20038;-40
2023/10/25 05:03:46;;;;;;;18.50;16.65;;;18.20;63.00;;;;;;5073645;28;20373;-39
2023/10/25 05:06:12;;;;;;;18.30;16.52;;;18.20;63.00;;;;;;5077799;28;20028;-39
2023/10/25 05:08:39;;;;;;;18.50;16.70;;;18.20;63.10;;;;;;5081805;28;20025;-40
2023/10/25 05:11:05;;;;;;;18.00;16.27;;;18.20;63.10;;;;;;5067689;28;20029;-39
2023/10/25 05:13:32;;;;;;;19.33;17.30;;;18.10;63.10;;;;;;5081410;28;20046;-40
2023/10/25 05:15:58;;;;;;;19.02;17.13;;;18.10;63.10;;;;;;5071699;28;20087;-39
2023/10/25 05:18:26;;;;;;;18.60;16.60;;;18.10;63.10;;;;;;5075966;28;20719;-40
2023/10/25 05:20:59;;;;;;;20.17;18.10;;;18.10;63.20;;;;;;5080525;28;20293;-39
2023/10/25 05:23:32;;;;;;;18.60;16.70;;;18.10;63.10;;;;;;5081606;28;20040;-39
2023/10/25 05:26:00;;;;;;;18.45;16.55;;;18.10;63.20;;;;;;5078848;28;20054;-39
2023/10/25 05:28:26;;;;;;;18.35;16.42;;;18.10;63.30;;;;;;5071296;28;20108;-39
2023/10/25 05:30:54;;;;;;;18.38;16.48;;;18.10;63.30;;;;;;5072517;28;20040;-39
2023/10/25 05:33:20;;;;;;;17.83;15.63;;;18.00;63.30;;;;;;5081586;28;20036;-39
2023/10/25 05:35:47;;;;;;;19.02;17.17;;;18.00;63.30;;;;;;5079690;28;20029;-39
2023/10/25 05:38:13;;;;;;;18.33;16.50;;;18.00;63.40;;;;;;5080747;28;20041;-39
2023/10/25 05:40:41;;;;;;;18.13;16.33;;;18.00;63.30;;;;;;5068739;28;20175;-39
2023/10/25 05:43:08;;;;;;;18.00;16.20;;;18.00;63.40;;;;;;5080237;28;20104;-40
2023/10/25 05:45:34;;;;;;;17.60;15.93;;;18.00;63.40;;;;;;5063907;28;20488;-39
2023/10/25 05:48:01;;;;;;;17.90;16.17;;;18.00;63.40;;;;;;5080156;28;20044;-39
2023/10/25 05:50:27;;;;;;;17.67;16.05;;;18.00;63.40;;;;;;5074570;28;20052;-40
2023/10/25 05:52:54;;;;;;;18.07;16.20;;;17.90;63.40;;;;;;5080786;28;20048;-39
2023/10/25 05:55:20;;;;;;;18.13;16.23;;;17.90;63.40;;;;;;5079876;28;20117;-39
2023/10/25 05:57:47;;;;;;;18.27;16.47;;;17.90;63.40;;;;;;5072998;28;20285;-40
2023/10/25 06:00:13;;;;;;;18.20;16.40;;;17.90;63.40;;;;;;5077451;28;20040;-40
2023/10/25 06:02:40;;;;;;;17.45;15.65;;;17.90;63.50;;;;;;5052424;28;20029;-40
2023/10/25 06:05:06;;;;;;;17.52;15.73;;;17.90;63.50;;;;;;5060859;28;20136;-40
2023/10/25 06:07:33;;;;;;;17.55;15.68;;;17.90;63.50;;;;;;5080498;28;20032;-40
2023/10/25 06:09:59;;;;;;;13.00;11.73;;;17.80;63.40;;;;;;5083688;28;20056;-39
2023/10/25 06:12:25;;;;;;;17.37;15.63;;;17.80;63.50;;;;;;5072510;28;20029;-39
2023/10/25 06:14:52;;;;;;;17.25;15.50;;;17.80;63.50;;;;;;5074377;28;20207;-39
2023/10/25 06:17:18;;;;;;;17.15;15.30;;;17.80;63.60;;;;;;5066841;28;20098;-39
2023/10/25 06:19:44;;;;;;;17.10;15.43;;;17.80;63.60;;;;;;5074224;28;20037;-39
2023/10/25 06:22:11;;;;;;;17.83;16.03;;;17.80;63.60;;;;;;5074525;28;20036;-39
2023/10/25 06:24:37;;;;;;;16.50;14.80;;;17.80;63.60;;;;;;5069366;28;20028;-39
2023/10/25 06:27:03;;;;;;;16.80;15.20;;;17.80;63.70;;;;;;5066783;28;20032;-39
2023/10/25 06:29:29;;;;;;;17.37;15.73;;;17.80;63.80;;;;;;5066185;28;20044;-39
2023/10/25 06:31:56;;;;;;;15.85;14.35;;;17.80;63.70;;;;;;5068850;28;20365;-39
2023/10/25 06:34:22;;;;;;;16.50;14.75;;;17.70;63.70;;;;;;5070596;28;20124;-39
2023/10/25 06:36:48;;;;;;;16.85;15.25;;;17.70;63.70;;;;;;5072274;28;20064;-40
2023/10/25 06:39:15;;;;;;;17.13;15.43;;;17.70;63.70;;;;;;5072400;28;20037;-39
2023/10/25 06:41:42;;;;;;;16.17;14.57;;;17.70;63.80;;;;;;5077504;28;20048;-40
2023/10/25 06:44:08;;;;;;;16.20;14.52;;;17.70;63.80;;;;;;5100488;28;20044;-39
2023/10/25 06:46:35;;;;;;;14.37;12.90;;;17.70;63.90;;;;;;5088595;28;20045;-39
2023/10/25 06:49:01;;;;;;;14.27;12.88;;;17.70;64.30;;;;;;5071238;28;20269;-39
2023/10/25 06:51:28;;;;;;;15.13;13.63;;;17.70;64.40;;;;;;5100044;28;20031;-39
2023/10/25 06:53:54;;;;;;;11.10;9.93;;;17.80;64.40;;;;;;5102098;28;20056;-39
2023/10/25 06:56:21;;;;;;;14.50;13.10;;;17.80;64.40;;;;;;5094278;28;20029;-39
2023/10/25 06:58:48;;;;;;;14.27;12.77;;;17.70;64.30;;;;;;5093708;28;20308;-39
2023/10/25 07:01:17;;;;;;;14.02;12.70;;;17.70;64.30;;;;;;5090360;28;20043;-39
2023/10/25 07:03:48;;;;;;;14.40;13.02;;;17.70;64.40;;;;;;5086776;28;20028;-39
2023/10/25 07:06:16;;;;;;;14.27;12.88;;;17.70;64.50;;;;;;5072714;28;20029;-39
2023/10/25 07:08:43;;;;;;;14.98;12.63;;;17.60;64.40;;;;;;5093034;28;20024;-39
2023/10/25 07:11:09;;;;;;;14.18;12.77;;;17.60;64.40;;;;;;5087156;28;20036;-39
2023/10/25 07:13:35;;;;;;;12.82;11.55;;;17.60;64.40;;;;;;5100718;28;20035;-39
2023/10/25 07:16:02;;;;;;;13.38;12.05;;;17.60;64.60;;;;;;5101238;28;20028;-39
2023/10/25 07:18:28;;;;;;;12.63;11.40;;;17.70;64.90;;;;;;5084945;28;20028;-39
2023/10/25 07:20:54;;;;;;;11.90;10.68;;;17.70;64.90;;;;;;5087490;28;20047;-39
2023/10/25 07:23:20;;;;;;;11.68;10.55;;;17.70;64.70;;;;;;5098003;28;20043;-39
2023/10/25 07:25:47;;;;;;;12.73;10.88;;;17.70;64.80;;;;;;5101988;28;20040;-39
2023/10/25 07:28:14;;;;;;;11.68;10.50;;;17.70;64.80;;;;;;5093555;28;20165;-39
2023/10/25 07:30:40;;;;;;;13.38;12.00;;;17.70;64.80;;;;;;5093393;28;20043;-39
2023/10/25 07:33:07;;;;;;;12.20;10.93;;;17.70;64.80;;;;;;5088705;28;20032;-39
2023/10/25 07:35:33;;;;;;;12.07;10.88;;;17.60;64.60;;;;;;5099745;28;20058;-39
2023/10/25 07:37:59;;;;;;;11.18;10.13;;;17.60;64.60;;;;;;5085085;28;20131;-40
2023/10/25 07:40:25;;;;;;;10.07;9.18;;;17.60;64.60;;;;;;5085063;28;20041;-39
2023/10/25 07:42:51;;;;;;;10.40;9.40;;;17.70;65.20;;;;;;5088811;28;20049;-39
2023/10/25 07:45:18;;;;;;;10.02;9.02;;;17.70;65.30;;;;;;5085148;28;20078;-39
2023/10/25 07:47:44;;;;;;;11.23;10.13;;;17.80;65.10;;;;;;5084506;28;20071;-39
2023/10/25 07:50:10;;;;;;;10.65;9.55;;;17.70;64.90;;;;;;5085042;28;20078;-40
2023/10/25 07:52:36;;;;;;;10.07;9.07;;;17.70;64.90;;;;;;5091868;28;20024;-39
2023/10/25 07:55:03;;;;;;;9.82;8.93;;;17.70;65.00;;;;;;5086284;28;20028;-39
2023/10/25 07:57:30;;;;;;;10.27;9.27;;;17.70;65.00;;;;;;5084105;28;20584;-38
2023/10/25 07:59:57;;;;;;;10.75;9.75;;;17.70;64.90;;;;;;5085390;28;20055;-39
2023/10/25 08:02:24;;;;;;;11.13;9.93;;;17.70;64.90;;;;;;5084305;28;20039;-39
2023/10/25 08:04:50;;;;;;;10.07;9.10;;;17.60;64.90;;;;;;5090044;28;20035;-40
2023/10/25 08:07:16;;;;;;;9.18;8.27;;;17.60;64.90;;;;;;5088172;28;20056;-39
2023/10/25 08:09:44;;;;;;;8.82;7.93;;;17.70;65.40;;;;;;5093506;28;20032;-39
2023/10/25 08:12:10;;;;;;;9.10;8.20;;;17.80;66.10;;;;;;5082763;28;20389;-39
2023/10/25 08:14:37;;;;;;;8.60;7.80;;;17.80;65.30;;;;;;5091284;28;20020;-39
2023/10/25 08:17:03;;;;;;;8.75;7.95;;;17.80;65.20;;;;;;5094881;28;20032;-39
2023/10/25 08:19:32;;;;;;;8.90;8.10;;;17.80;65.20;;;;;;5097129;28;20045;-39
2023/10/25 08:21:59;;;;;;;8.43;7.63;;;17.70;65.10;;;;;;5093560;28;20273;-39
2023/10/25 08:24:25;;;;;;;9.18;8.27;;;17.70;65.20;;;;;;5097304;28;20028;-39
2023/10/25 08:26:55;;;;;;;8.55;7.75;;;17.70;65.90;;;;;;5073764;28;20070;-39
2023/10/25 08:29:21;;;;;;;8.25;7.45;;;17.70;65.20;;;;;;5089316;28;20040;-39
2023/10/25 08:31:47;;;;;;;9.07;7.78;;;17.70;65.20;;;;;;5072273;28;20170;-38
2023/10/25 08:34:13;;;;;;;7.85;7.05;;;17.60;65.10;;;;;;5091459;28;20469;-39
2023/10/25 08:36:40;;;;;;;6.80;6.20;;;17.70;65.50;;;;;;5087425;28;20040;-39
2023/10/25 08:39:06;;;;;;;7.35;6.65;;;17.80;65.70;;;;;;5094362;28;20085;-39
2023/10/25 08:41:34;;;;;;;7.95;7.15;;;17.80;65.70;;;;;;5095048;28;20083;-39
2023/10/25 08:44:00;;;;;;;7.32;6.63;;;17.80;65.40;;;;;;5098899;28;20505;-39
2023/10/25 08:46:27;;;;;;;8.00;6.78;;;17.80;65.40;;;;;;5076768;28;20047;-39
2023/10/25 08:48:55;;;;;;;7.55;6.82;;;17.80;65.40;;;;;;5066050;28;20041;-39
2023/10/25 08:51:25;;;;;;;7.22;6.53;;;17.80;65.30;;;;;;5071189;28;20044;-39
2023/10/25 08:53:52;;;;;;;7.22;6.53;;;17.70;65.30;;;;;;5086522;28;20051;-39
2023/10/25 08:56:18;;;;;;;;;;;17.70;65.30;;;;;;5084788;28;20036;-38
2023/10/25 08:58:44;;;;;;;7.25;6.65;;;17.70;65.30;;;;;;5093963;28;19976;-39
2023/10/25 09:01:10;;;;;;;7.03;6.20;;;17.70;65.30;;;;;;5083740;28;20468;-39
2023/10/25 09:03:38;;;;;;;6.30;5.70;;;17.70;65.40;;;;;;5097225;28;20019;-40
2023/10/25 09:06:05;;;;;;;6.50;5.90;;;17.80;65.70;;;;;;5083162;28;20020;-39
2023/10/25 09:08:31;;;;;;;;;;;17.80;65.60;;;;;;5095371;28;20107;-40
2023/10/25 09:11:00;;;;;;;6.43;5.82;;;17.80;65.40;;;;;;5084929;28;19927;-40
2023/10/25 09:13:26;;;;;;;6.50;5.90;;;17.80;65.40;;;;;;5094234;28;20051;-40
2023/10/25 09:15:52;;;;;;;6.65;5.97;;;17.80;65.40;;;;;;5100203;28;20040;-40
2023/10/25 09:18:19;;;;;;;6.68;6.07;;;17.70;65.30;;;;;;5086451;28;20028;-40
2023/10/25 09:20:51;;;;;;;6.53;5.93;;;17.70;65.30;;;;;;5083157;28;20126;-40
2023/10/25 09:23:17;;;;;;;6.18;5.68;;;17.70;65.30;;;;;;5095135;28;20081;-40
2023/10/25 09:25:46;;;;;;;6.53;5.88;;;17.70;65.30;;;;;;5100980;28;20035;-40
2023/10/25 09:28:28;;;;;;;6.03;5.47;;;17.70;65.40;;;;;;5087559;28;20028;-40
2023/10/25 09:30:55;;;;;;;5.68;5.18;;;17.70;65.50;;;;;;5100086;28;20028;-39
2023/10/25 09:33:22;;;;;;;;;;;17.80;65.70;;;;;;5096976;28;20029;-39
2023/10/25 09:35:48;;;;;;;5.63;5.03;;;17.80;65.60;;;;;;5096284;28;20010;-39
2023/10/25 09:38:15;;;;;;;4.25;3.85;;;17.80;65.50;;;;;;5090325;28;20112;-39
2023/10/25 09:40:41;;;;;;;5.80;5.28;;;17.80;65.50;;;;;;5094752;28;20133;-39
2023/10/25 09:43:20;;;;;;;5.45;4.93;;;17.70;65.50;;;;;;5104667;28;20054;-39
2023/10/25 09:45:53;;;;;;;5.93;5.38;;;17.70;65.40;;;;;;5085978;28;20028;-39
2023/10/25 09:48:20;;;;;;;5.88;5.28;;;17.70;65.40;;;;;;5098706;28;20667;-39
2023/10/25 09:50:52;;;;;;;5.20;4.70;;;17.70;65.60;;;;;;5096924;28;20035;-39
2023/10/25 09:53:23;;;;;;;5.57;5.07;;;17.80;65.80;;;;;;5105039;28;20027;-39
2023/10/25 09:55:54;;;;;;;5.32;4.82;;;17.80;65.70;;;;;;5104103;28;20053;-39
2023/10/25 09:58:25;;;;;;;5.22;4.72;;;17.80;65.60;;;;;;5094411;28;20037;-40
2023/10/25 10:00:51;;;;;;;5.38;4.85;;;17.80;65.60;;;;;;5070133;28;20055;-39
2023/10/25 10:03:44;;;;;;;5.20;4.70;;;17.80;65.60;;;;;;5083086;28;20035;-39
2023/10/25 10:06:31;;;;;;;5.40;4.90;;;17.70;65.50;;;;;;5083048;28;20036;-39
2023/10/25 10:09:13;;;;;;;5.32;4.80;;;17.70;65.50;;;;;;5076742;28;20036;-39
2023/10/25 10:11:43;;;;;;;5.28;4.70;;;17.70;65.60;;;;;;5104286;28;20444;-39
2023/10/25 10:14:39;;;;;;;4.28;3.88;;;17.70;65.70;;;;;;5104532;28;20067;-39
2023/10/25 10:17:14;;;;;;;4.35;3.95;;;17.80;65.90;;;;;;5081187;28;20032;-39
2023/10/25 10:19:44;;;;;;;4.70;4.30;;;17.90;65.80;;;;;;5103479;28;20061;-39
2023/10/25 10:22:13;;;;;;;5.07;4.57;;;17.80;65.60;;;;;;5104777;28;20039;-39
2023/10/25 10:24:40;;;;;;;6.60;4.00;;;17.80;65.60;;;;;;5104026;28;20035;-39
2023/10/25 10:27:06;;;;;;;4.35;4.05;;;17.80;65.60;;;;;;5097349;28;20024;-39
2023/10/25 10:29:32;;;;;;;4.80;4.30;;;17.80;65.60;;;;;;5080472;28;20036;-39
2023/10/25 10:31:59;;;;;;;4.90;4.40;;;17.80;65.60;;;;;;5102031;28;20026;-39
2023/10/25 10:34:44;;;;;;;4.90;4.30;;;17.70;65.60;;;;;;5101412;28;20036;-39
2023/10/25 10:37:21;;;;;;;4.53;4.13;;;17.70;65.60;;;;;;5099803;28;20052;-40
2023/10/25 10:39:57;;;;;;;4.20;3.80;;;17.70;65.60;;;;;;5100929;28;20090;-40
2023/10/25 10:42:29;;;;;;;3.97;3.58;;;17.70;65.70;;;;;;5103691;28;20855;-39
2023/10/25 10:44:56;;;;;;;4.40;4.00;;;17.80;66.00;;;;;;5102200;28;20028;-39
2023/10/25 10:47:32;;;;;;;3.70;3.40;;;17.90;65.90;;;;;;5102599;28;20051;-39
2023/10/25 10:50:05;;;;;;;4.97;3.80;;;17.80;65.70;;;;;;5101164;28;20060;-39
2023/10/25 10:52:31;;;;;;;4.10;3.70;;;17.80;65.70;;;;;;5077999;28;20048;-40
2023/10/25 10:54:57;;;;;;;4.25;3.80;;;17.80;65.70;;;;;;5077930;28;20506;-40
2023/10/25 10:57:26;;;;;;;4.85;4.35;;;17.80;65.70;;;;;;5102658;28;20050;-39
2023/10/25 10:59:52;;;;;;;3.85;3.45;;;17.80;65.70;;;;;;5101611;28;20040;-40
2023/10/25 11:02:18;;;;;;;4.78;3.65;;;17.70;65.70;;;;;;5102683;28;20095;-40
2023/10/25 11:04:44;;;;;;;4.50;3.63;;;17.70;65.60;;;;;;5098284;28;20073;-40
2023/10/25 11:07:10;;;;;;;4.18;3.75;;;17.80;65.90;;;;;;5102823;28;20020;-40
2023/10/25 11:09:37;;;;;;;4.55;3.70;;;17.80;65.90;;;;;;5103078;28;20020;-40
2023/10/25 11:12:10;;;;;;;3.85;3.45;;;17.90;65.90;;;;;;5101780;28;20035;-39
2023/10/25 11:14:45;;;;;;;3.67;3.38;;;17.80;65.70;;;;;;5095542;28;20040;-39
2023/10/25 11:17:12;;;;;;;3.45;3.15;;;17.80;65.70;;;;;;5087585;28;20473;-40
2023/10/25 11:19:38;;;;;;;3.70;3.40;;;17.80;65.70;;;;;;5094652;28;20616;-40
2023/10/25 11:22:04;;;;;;;4.20;3.80;;;17.80;65.70;;;;;;5092253;28;20043;-40
2023/10/25 11:24:32;;;;;;;3.58;3.28;;;17.80;65.70;;;;;;5091822;28;20039;-40
2023/10/25 11:26:58;;;;;;;3.85;3.45;;;17.70;65.70;;;;;;5074951;28;20032;-40
2023/10/25 11:29:25;;;;;;;3.55;3.25;;;17.70;65.70;;;;;;5097439;28;20115;-40
2023/10/25 11:31:55;;;;;;;3.65;3.35;;;17.70;65.70;;;;;;5074272;28;20035;-40
2023/10/25 11:34:21;;;;;;;3.92;2.97;;;17.80;66.00;;;;;;5101034;28;20040;-39
2023/10/25 11:36:48;;;;;;;3.60;3.30;;;17.80;65.90;;;;;;5092637;28;20404;-40
2023/10/25 11:39:14;;;;;;;3.72;3.42;;;17.90;65.90;;;;;;5101434;28;20047;-39
2023/10/25 11:41:44;;;;;;;3.50;3.20;;;17.80;65.70;;;;;;5035258;28;1859496;-40
2023/10/25 11:44:10;;;;;;;3.45;3.15;;;17.80;65.80;;;;;;5102727;28;20036;-40
2023/10/25 11:46:37;;;;;;;3.67;3.20;;;17.80;65.70;;;;;;5096165;28;20024;-40
2023/10/25 11:49:04;;;;;;;3.20;2.90;;;17.80;65.70;;;;;;5094849;28;20020;-40
2023/10/25 11:51:33;;;;;;;3.65;3.35;;;17.80;65.70;;;;;;5095221;28;20043;-40
2023/10/25 11:54:03;;;;;;;3.58;3.28;;;17.70;65.70;;;;;;5092867;28;20054;-39
2023/10/25 11:56:29;;;;;;;3.47;3.15;;;17.70;65.60;;;;;;5091937;28;20036;-40
2023/10/25 11:58:55;;;;;;;3.20;2.90;;;17.70;65.60;;;;;;5092939;28;20024;-40
2023/10/25 12:01:21;;;;;;;3.47;2.78;;;17.80;65.90;;;;;;5101563;28;20484;-40
2023/10/25 12:03:47;;;;;;;3.33;2.70;;;17.80;66.00;;;;;;5101098;28;20039;-40
2023/10/25 12:06:14;;;;;;;3.10;2.80;;;17.80;65.90;;;;;;5102929;28;20035;-40
2023/10/25 12:08:40;;;;;;;3.28;2.92;;;17.80;65.80;;;;;;5102581;28;20036;-40
2023/10/25 12:11:10;;;;;;;3.03;2.73;;;17.80;65.80;;;;;;5077529;28;20024;-40
2023/10/25 12:13:40;;;;;;;2.72;2.42;;;17.80;65.80;;;;;;5102352;28;20032;-40
2023/10/25 12:16:07;;;;;;;2.80;2.60;;;17.80;65.80;;;;;;5099370;28;20024;-40
2023/10/25 12:18:37;;;;;;;3.08;2.88;;;17.80;65.80;;;;;;5073394;28;20048;-40
2023/10/25 12:21:03;;;;;;;3.70;3.30;;;17.70;65.70;;;;;;5095160;28;20036;-40
2023/10/25 12:23:30;;;;;;;3.05;2.75;;;17.70;65.80;;;;;;5102310;28;20031;-40
2023/10/25 12:25:56;;;;;;;2.95;2.70;;;17.80;66.10;;;;;;5101442;28;20063;-40
2023/10/25 12:28:23;;;;;;;2.60;2.40;;;17.90;66.10;;;;;;5099048;28;20024;-40
2023/10/25 12:30:49;;;;;;;2.90;2.70;;;17.90;66.00;;;;;;5100845;28;20038;-40
2023/10/25 12:33:16;;;;;;;3.10;2.80;;;17.80;65.90;;;;;;5079916;28;20037;-40
2023/10/25 12:35:42;;;;;;;4.00;2.53;;;17.80;65.90;;;;;;5097503;28;20277;-39
2023/10/25 12:38:09;;;;;;;3.00;2.45;;;17.80;65.90;;;;;;5098972;28;20032;-39